Time;durP1;ratioP1;P1;durP2;ratioP2;P2;SDS_P1;SDS_P2;PMS_P1;PMS_P2;Temp;Humidity;BMP_temperature;BMP_pressure;BME280_temperature;BME280_humidity;BME280_pressure;Samples;Min_cycle;Max_cycle;Signal;HPM_P1;HPM_P2
2023/08/10 00:00:12;;;;;;;2.42;2.33;;;18.30;53.10;;;;;;20524;6839;308003;-72
2023/08/10 00:02:34;;;;;;;2.50;2.40;;;18.60;52.80;;;;;;20711;6839;118182;-71
2023/08/10 00:04:59;;;;;;;2.67;2.50;;;18.40;52.60;;;;;;20507;6839;310014;-70
2023/08/10 00:07:25;;;;;;;2.60;2.40;;;18.50;53.30;;;;;;20533;6838;309078;-72
2023/08/10 00:09:51;;;;;;;2.23;2.03;;;18.50;52.90;;;;;;20735;6839;117922;-71
2023/08/10 00:12:17;;;;;;;2.20;2.10;;;18.50;52.80;;;;;;20727;6839;119658;-71
2023/08/10 00:14:43;;;;;;;2.37;2.28;;;18.20;53.20;;;;;;20668;6854;118473;-70
2023/08/10 00:17:08;;;;;;;2.77;2.57;;;18.00;53.60;;;;;;20524;6839;278440;-70
2023/08/10 00:19:34;;;;;;;2.60;2.40;;;18.10;54.20;;;;;;20736;6839;117096;-71
2023/08/10 00:21:59;;;;;;;2.30;2.20;;;18.10;54.00;;;;;;20748;6834;117436;-72
2023/08/10 00:24:25;;;;;;;2.30;2.20;;;17.90;54.20;;;;;;20729;6839;117139;-71
2023/08/10 00:26:50;;;;;;;2.40;2.30;;;17.70;54.40;;;;;;20728;6834;121196;-72
2023/08/10 00:29:16;;;;;;;2.15;1.73;;;17.50;54.60;;;;;;20746;6834;124783;-71
2023/08/10 00:31:42;;;;;;;2.50;2.30;;;17.30;54.70;;;;;;20727;6839;117088;-71
2023/08/10 00:34:07;;;;;;;2.67;2.58;;;17.20;54.80;;;;;;20474;6854;309000;-71
2023/08/10 00:36:33;;;;;;;2.40;2.30;;;17.50;56.10;;;;;;20520;6839;308505;-71
2023/08/10 00:38:58;;;;;;;2.50;2.40;;;17.90;55.00;;;;;;20494;6839;341671;-71
2023/08/10 00:41:24;;;;;;;3.00;2.23;;;18.30;54.40;;;;;;20729;6839;117743;-71
2023/08/10 00:43:49;;;;;;;2.50;2.37;;;18.20;54.20;;;;;;20521;6839;307602;-70
2023/08/10 00:46:15;;;;;;;2.15;2.05;;;18.30;54.00;;;;;;20751;6835;120620;-70
2023/08/10 00:48:41;;;;;;;2.10;2.00;;;18.10;53.90;;;;;;20714;6839;120088;-73
2023/08/10 00:51:06;;;;;;;2.70;2.50;;;17.80;54.20;;;;;;20548;6835;277571;-71
2023/08/10 00:53:32;;;;;;;2.60;2.50;;;17.90;54.40;;;;;;20523;6839;310815;-70
2023/08/10 00:55:58;;;;;;;2.45;2.35;;;18.00;54.10;;;;;;20759;6835;118036;-70
2023/08/10 00:58:23;;;;;;;2.17;2.07;;;17.90;53.80;;;;;;20729;6839;117104;-72
2023/08/10 01:00:50;;;;;;;2.50;2.40;;;17.40;54.70;;;;;;20730;6835;119670;-71
2023/08/10 01:03:15;;;;;;;2.70;2.60;;;17.40;54.70;;;;;;20541;6835;307477;-71
2023/08/10 01:05:49;;;;;;;2.62;2.53;;;17.50;54.90;;;;;;20524;6839;337021;-70
2023/08/10 01:08:14;;;;;;;2.60;2.50;;;17.90;54.60;;;;;;20508;6835;288188;-71
2023/08/10 01:10:39;;;;;;;2.33;2.20;;;18.10;53.90;;;;;;20683;6839;120310;-70
2023/08/10 01:13:28;;;;;;;2.57;2.47;;;17.90;53.80;;;;;;20485;6839;278435;-71
2023/08/10 01:15:57;;;;;;;2.60;2.40;;;17.70;54.50;;;;;;20731;6839;120512;-71
2023/08/10 01:18:26;;;;;;;2.33;2.20;;;17.70;54.10;;;;;;20750;6833;117745;-70
2023/08/10 01:20:52;;;;;;;2.60;2.50;;;17.40;54.60;;;;;;20508;6839;281877;-72
2023/08/10 01:23:34;;;;;;;2.30;2.20;;;17.50;55.10;;;;;;20688;6854;119925;-71
2023/08/10 01:25:59;;;;;;;2.78;2.67;;;17.40;55.00;;;;;;20514;6839;278253;-71
2023/08/10 01:28:26;;;;;;;3.10;2.90;;;17.60;55.20;;;;;;20521;6839;308057;-70
2023/08/10 01:30:52;;;;;;;2.53;2.43;;;17.80;54.70;;;;;;20723;6834;117968;-72
2023/08/10 01:33:18;;;;;;;3.10;2.90;;;17.70;54.70;;;;;;20524;6839;307697;-71
2023/08/10 01:35:44;;;;;;;2.80;2.70;;;17.70;54.70;;;;;;20533;6834;311222;-72
2023/08/10 01:38:10;;;;;;;2.40;2.30;;;17.80;54.40;;;;;;20751;6834;117061;-72
2023/08/10 01:40:35;;;;;;;3.10;2.37;;;17.70;54.30;;;;;;20730;6839;122683;-72
2023/08/10 01:43:02;;;;;;;2.47;2.37;;;17.10;55.10;;;;;;20719;6839;122702;-72
2023/08/10 01:45:27;;;;;;;2.80;2.70;;;17.10;55.20;;;;;;20518;6839;336183;-70
2023/08/10 01:48:03;;;;;;;2.53;2.42;;;17.30;55.30;;;;;;20516;6839;311766;-71
2023/08/10 01:50:27;;;;;;;2.30;2.10;;;17.60;54.90;;;;;;20739;6834;116936;-72
2023/08/10 01:52:56;;;;;;;2.58;2.45;;;17.50;54.70;;;;;;20512;6834;335623;-70
2023/08/10 01:55:23;;;;;;;2.60;2.50;;;17.50;54.90;;;;;;20714;6835;117495;-71
2023/08/10 01:57:49;;;;;;;2.83;2.53;;;17.40;55.00;;;;;;20748;6835;117499;-72
2023/08/10 02:00:14;;;;;;;2.60;2.50;;;17.10;55.30;;;;;;20730;6839;116232;-71
2023/08/10 02:02:40;;;;;;;2.60;2.27;;;16.90;55.80;;;;;;20684;6854;117810;-72
2023/08/10 02:05:05;;;;;;;2.40;2.30;;;16.70;56.00;;;;;;20735;6839;117403;-71
2023/08/10 02:07:31;;;;;;;2.77;2.67;;;16.60;56.30;;;;;;20520;6839;297421;-73
2023/08/10 02:09:57;;;;;;;2.50;2.40;;;16.90;56.30;;;;;;20730;6839;118715;-70
2023/08/10 02:12:22;;;;;;;3.10;2.90;;;16.90;55.90;;;;;;20525;6839;282317;-72
2023/08/10 02:14:48;;;;;;;2.67;2.40;;;17.10;56.00;;;;;;20726;6839;119668;-71
2023/08/10 02:17:13;;;;;;;2.63;2.53;;;17.10;55.80;;;;;;20526;6839;306641;-71
2023/08/10 02:19:40;;;;;;;2.77;2.50;;;17.10;55.60;;;;;;20739;6839;118281;-71
2023/08/10 02:22:05;;;;;;;2.67;2.20;;;17.10;55.60;;;;;;20729;6839;118045;-74
2023/08/10 02:24:30;;;;;;;2.90;2.60;;;16.90;56.00;;;;;;20468;6854;307645;-72
2023/08/10 02:26:56;;;;;;;2.83;2.72;;;17.10;56.50;;;;;;20510;6839;280888;-71
2023/08/10 02:29:22;;;;;;;2.80;2.70;;;17.70;55.40;;;;;;20536;6838;288891;-70
2023/08/10 02:31:48;;;;;;;2.90;2.50;;;17.70;55.40;;;;;;20535;6834;340975;-72
2023/08/10 02:34:14;;;;;;;2.55;2.40;;;17.90;54.90;;;;;;20735;6839;118046;-70
2023/08/10 02:36:39;;;;;;;2.53;2.40;;;17.70;55.00;;;;;;20537;6834;277150;-74
2023/08/10 02:39:05;;;;;;;2.60;2.40;;;17.70;54.90;;;;;;20518;6834;277470;-73
2023/08/10 02:41:31;;;;;;;2.33;2.22;;;17.70;54.50;;;;;;20750;6834;117062;-73
2023/08/10 02:43:57;;;;;;;2.43;2.23;;;17.70;54.50;;;;;;20727;6839;117509;-71
2023/08/10 02:46:23;;;;;;;2.40;2.30;;;17.40;55.00;;;;;;20743;6834;120794;-75
2023/08/10 02:48:49;;;;;;;2.30;2.20;;;17.10;55.40;;;;;;20711;6839;117189;-75
2023/08/10 02:51:14;;;;;;;2.40;2.30;;;16.90;55.80;;;;;;20744;6834;121056;-75
2023/08/10 02:53:40;;;;;;;2.40;2.20;;;16.80;56.20;;;;;;20712;6839;117228;-74
2023/08/10 02:56:06;;;;;;;2.80;2.33;;;16.60;56.30;;;;;;20523;6839;341548;-75
2023/08/10 02:58:31;;;;;;;2.15;2.05;;;16.90;56.70;;;;;;20684;6854;117272;-73
2023/08/10 03:00:57;;;;;;;2.47;2.37;;;17.00;56.50;;;;;;20726;6839;120517;-76
2023/08/10 03:03:25;;;;;;;2.20;2.10;;;16.60;56.60;;;;;;20768;6839;118515;-74
2023/08/10 03:05:49;;;;;;;2.50;2.40;;;16.60;56.70;;;;;;20532;6839;328566;-76
2023/08/10 03:08:15;;;;;;;3.30;2.40;;;16.90;56.70;;;;;;20765;6839;118789;-74
2023/08/10 03:10:41;;;;;;;2.30;2.20;;;16.70;56.40;;;;;;20761;6839;120366;-76
2023/08/10 03:13:07;;;;;;;2.50;2.40;;;16.70;56.50;;;;;;20436;6835;303252;-73
2023/08/10 03:15:32;;;;;;;2.50;2.30;;;16.90;57.20;;;;;;20751;6835;118263;-73
2023/08/10 03:17:57;;;;;;;2.12;2.03;;;16.90;56.50;;;;;;20732;6839;120422;-77
2023/08/10 03:20:25;;;;;;;3.25;2.65;;;16.70;56.40;;;;;;20507;6839;306714;-75
2023/08/10 03:22:51;;;;;;;2.60;2.50;;;17.30;55.40;;;;;;20507;6835;283293;-75
2023/08/10 03:25:16;;;;;;;2.20;2.10;;;17.20;55.30;;;;;;20749;6839;120527;-75
2023/08/10 03:27:42;;;;;;;2.40;2.20;;;16.90;55.50;;;;;;20708;6854;121939;-75
2023/08/10 03:30:08;;;;;;;2.80;2.47;;;16.90;55.50;;;;;;20529;6839;306668;-78
2023/08/10 03:32:35;;;;;;;6.20;5.80;;;17.00;55.20;;;;;;20535;6839;278505;-77
2023/08/10 03:35:01;;;;;;;10.07;9.38;;;17.30;54.80;;;;;;20521;6835;424416;-78
2023/08/10 03:37:27;;;;;;;13.33;12.33;;;17.50;54.20;;;;;;20554;6835;277938;-76
2023/08/10 03:39:53;;;;;;;6.82;6.30;;;17.40;54.10;;;;;;20750;6837;117827;-72
2023/08/10 03:42:18;;;;;;;2.77;2.53;;;17.40;54.10;;;;;;20740;6838;117311;-74
2023/08/10 03:44:44;;;;;;;2.43;2.23;;;17.00;54.70;;;;;;20746;6839;116142;-74
2023/08/10 03:47:11;;;;;;;3.15;2.87;;;16.80;55.30;;;;;;20533;6839;306280;-74
2023/08/10 03:49:37;;;;;;;3.23;2.90;;;16.80;55.90;;;;;;20745;6839;120574;-70
2023/08/10 03:52:02;;;;;;;2.37;2.27;;;16.80;55.90;;;;;;20744;6839;120323;-73
2023/08/10 03:54:29;;;;;;;2.60;2.50;;;16.60;56.00;;;;;;20750;6839;120606;-75
2023/08/10 03:56:54;;;;;;;2.40;2.30;;;16.40;56.30;;;;;;20723;6839;117234;-73
2023/08/10 03:59:20;;;;;;;2.87;2.30;;;16.20;56.60;;;;;;20742;6839;122655;-71
2023/08/10 04:01:46;;;;;;;2.70;2.60;;;16.10;56.80;;;;;;20749;6839;119085;-72
2023/08/10 04:04:12;;;;;;;2.23;2.10;;;15.90;57.20;;;;;;20728;6839;117465;-71
2023/08/10 04:06:38;;;;;;;2.93;2.83;;;15.90;57.20;;;;;;20517;6839;297793;-72
2023/08/10 04:09:04;;;;;;;3.10;2.90;;;16.60;57.40;;;;;;20510;6839;307651;-72
2023/08/10 04:11:30;;;;;;;3.37;3.17;;;16.90;55.90;;;;;;20509;6839;310051;-72
2023/08/10 04:13:56;;;;;;;3.20;3.10;;;17.00;56.00;;;;;;20476;6854;283185;-72
2023/08/10 04:16:22;;;;;;;3.33;3.17;;;17.40;55.10;;;;;;20472;6839;283544;-72
2023/08/10 04:18:48;;;;;;;3.40;3.20;;;17.40;55.10;;;;;;20438;6839;308292;-72
2023/08/10 04:21:14;;;;;;;2.78;2.58;;;17.50;54.80;;;;;;20644;6854;117851;-71
2023/08/10 04:23:43;;;;;;;2.53;2.43;;;17.30;55.00;;;;;;20692;6839;119308;-72
2023/08/10 04:26:09;;;;;;;2.47;2.37;;;17.00;55.60;;;;;;20731;6839;119196;-72
2023/08/10 04:28:34;;;;;;;4.27;3.03;;;16.70;56.00;;;;;;20728;6839;117651;-72
2023/08/10 04:31:00;;;;;;;3.67;3.47;;;16.50;56.40;;;;;;20520;6835;399407;-72
2023/08/10 04:33:25;;;;;;;3.20;3.00;;;16.70;56.40;;;;;;20748;6835;118968;-72
2023/08/10 04:35:51;;;;;;;2.55;2.45;;;16.70;56.20;;;;;;20731;6839;118127;-72
2023/08/10 04:38:17;;;;;;;3.62;3.42;;;16.50;56.50;;;;;;20530;6835;307459;-72
2023/08/10 04:40:43;;;;;;;3.40;3.20;;;16.70;56.40;;;;;;20734;6835;120626;-72
2023/08/10 04:43:08;;;;;;;3.23;3.03;;;16.70;56.20;;;;;;20725;6839;121427;-72
2023/08/10 04:45:34;;;;;;;3.60;3.40;;;16.50;56.50;;;;;;20470;6854;284112;-72
2023/08/10 04:47:59;;;;;;;3.80;3.53;;;16.70;56.60;;;;;;20520;6839;278189;-72
2023/08/10 04:50:25;;;;;;;3.50;3.20;;;17.10;56.00;;;;;;20526;6835;340881;-72
2023/08/10 04:52:50;;;;;;;3.20;3.00;;;17.30;55.30;;;;;;20505;6837;277308;-72
2023/08/10 04:55:16;;;;;;;2.90;2.70;;;17.60;55.00;;;;;;20743;6834;117207;-72
2023/08/10 04:57:41;;;;;;;3.20;3.00;;;17.40;55.00;;;;;;20521;6839;278720;-72
2023/08/10 05:00:12;;;;;;;3.10;3.00;;;17.40;55.30;;;;;;20526;6839;308365;-72
2023/08/10 05:02:36;;;;;;;2.80;2.70;;;17.80;54.80;;;;;;20510;6839;312357;-72
2023/08/10 05:05:02;;;;;;;2.50;2.40;;;17.80;54.80;;;;;;20670;6854;118279;-72
2023/08/10 05:07:28;;;;;;;3.40;3.20;;;17.70;54.90;;;;;;20509;6839;279931;-72
2023/08/10 05:09:53;;;;;;;2.67;2.50;;;17.70;55.10;;;;;;20741;6839;117140;-72
2023/08/10 05:12:19;;;;;;;2.80;2.60;;;17.60;55.30;;;;;;20522;6839;279135;-72
2023/08/10 05:14:45;;;;;;;2.97;2.78;;;18.00;55.20;;;;;;20454;6854;338087;-72
2023/08/10 05:17:11;;;;;;;3.13;2.93;;;18.00;55.20;;;;;;20732;6839;119945;-72
2023/08/10 05:19:36;;;;;;;2.95;2.80;;;17.90;55.10;;;;;;20740;6839;119708;-72
2023/08/10 05:22:02;;;;;;;3.00;2.80;;;17.70;55.50;;;;;;20476;6854;297514;-72
2023/08/10 05:24:27;;;;;;;2.90;2.78;;;17.80;55.30;;;;;;20518;6839;282653;-72
2023/08/10 05:26:54;;;;;;;3.10;2.80;;;18.00;54.70;;;;;;20723;6837;119271;-72
2023/08/10 05:29:20;;;;;;;3.77;3.17;;;18.00;54.70;;;;;;20731;6837;123266;-72
2023/08/10 05:31:45;;;;;;;3.67;3.37;;;17.90;55.30;;;;;;20530;6837;306299;-72
2023/08/10 05:34:11;;;;;;;3.70;3.30;;;17.90;55.20;;;;;;20509;6839;340932;-72
2023/08/10 05:36:37;;;;;;;3.17;2.97;;;18.20;55.00;;;;;;20526;6837;327585;-72
2023/08/10 05:39:03;;;;;;;3.03;2.83;;;18.40;54.50;;;;;;20710;6839;117413;-72
2023/08/10 05:41:28;;;;;;;3.08;2.97;;;18.20;54.50;;;;;;20506;6839;312412;-72
2023/08/10 05:43:54;;;;;;;4.20;3.20;;;18.50;54.80;;;;;;20510;6839;311327;-72
2023/08/10 05:46:20;;;;;;;3.40;3.20;;;18.40;54.10;;;;;;20470;6854;320136;-72
2023/08/10 05:48:45;;;;;;;3.30;3.10;;;18.60;53.90;;;;;;20504;6839;336787;-72
2023/08/10 05:51:12;;;;;;;4.68;2.97;;;18.50;53.90;;;;;;20725;6839;117307;-72
2023/08/10 05:53:37;;;;;;;3.10;2.87;;;18.50;53.90;;;;;;20734;6839;117177;-72
2023/08/10 05:56:03;;;;;;;3.67;3.45;;;18.20;54.50;;;;;;20518;6839;311479;-72
2023/08/10 05:58:28;;;;;;;3.87;3.67;;;18.30;54.90;;;;;;20498;6839;307312;-72
2023/08/10 06:00:56;;;;;;;3.17;2.97;;;18.50;54.50;;;;;;20723;6835;120193;-72
2023/08/10 06:03:21;;;;;;;3.10;2.90;;;18.50;54.50;;;;;;20714;6837;117334;-71
2023/08/10 06:05:46;;;;;;;2.90;2.80;;;18.00;55.40;;;;;;20678;6853;119408;-72
2023/08/10 06:08:12;;;;;;;3.20;3.00;;;18.00;55.30;;;;;;20727;6839;119122;-72
2023/08/10 06:10:38;;;;;;;3.72;3.42;;;17.90;55.70;;;;;;20517;6839;277360;-72
2023/08/10 06:13:03;;;;;;;3.43;3.23;;;18.20;55.90;;;;;;20729;6834;119102;-72
2023/08/10 06:15:29;;;;;;;3.77;3.37;;;18.40;56.00;;;;;;20520;6834;307427;-72
2023/08/10 06:17:54;;;;;;;3.50;3.07;;;18.80;55.90;;;;;;20530;6834;307931;-72
2023/08/10 06:20:22;;;;;;;3.50;3.30;;;19.30;55.10;;;;;;20537;6834;307222;-72
2023/08/10 06:22:47;;;;;;;3.07;2.97;;;19.80;53.80;;;;;;20723;6834;117642;-72
2023/08/10 06:25:12;;;;;;;2.97;2.77;;;19.80;53.80;;;;;;20736;6834;120155;-72
2023/08/10 06:27:37;;;;;;;2.63;2.53;;;19.70;54.00;;;;;;20715;6839;120922;-72
2023/08/10 06:30:04;;;;;;;2.90;2.80;;;19.50;54.20;;;;;;20720;6839;117154;-72
2023/08/10 06:32:29;;;;;;;2.80;2.60;;;19.40;54.30;;;;;;20677;6854;117724;-72
2023/08/10 06:34:54;;;;;;;3.50;3.30;;;19.30;54.40;;;;;;20511;6839;278993;-72
2023/08/10 06:37:20;;;;;;;3.62;3.33;;;19.60;54.40;;;;;;20524;6839;307698;-72
2023/08/10 06:39:48;;;;;;;3.30;3.20;;;20.00;53.70;;;;;;20540;6834;293561;-72
2023/08/10 06:42:11;;;;;;;3.45;3.25;;;20.30;53.10;;;;;;20713;6839;119374;-72
2023/08/10 06:44:37;;;;;;;4.13;3.77;;;20.20;53.00;;;;;;20521;6839;281789;-72
2023/08/10 06:47:03;;;;;;;3.17;2.97;;;20.30;53.20;;;;;;20669;6854;120635;-71
2023/08/10 06:49:28;;;;;;;4.00;3.63;;;20.30;53.30;;;;;;20511;6839;303940;-72
2023/08/10 06:51:53;;;;;;;3.22;3.00;;;20.30;53.20;;;;;;20731;6839;117660;-72
2023/08/10 06:54:20;;;;;;;3.72;3.50;;;20.30;53.30;;;;;;20534;6835;277761;-72
2023/08/10 06:56:44;;;;;;;3.83;3.62;;;20.40;53.00;;;;;;20728;6835;117188;-72
2023/08/10 06:59:10;;;;;;;3.93;3.53;;;20.30;53.10;;;;;;20537;6835;307360;-72
2023/08/10 07:01:36;;;;;;;3.87;3.30;;;20.40;53.00;;;;;;20746;6835;117077;-72
2023/08/10 07:04:02;;;;;;;5.53;3.10;;;20.30;52.80;;;;;;20730;6839;117144;-72
2023/08/10 07:06:27;;;;;;;3.43;3.17;;;20.20;54.00;;;;;;20539;6835;278030;-72
2023/08/10 07:08:53;;;;;;;3.53;3.23;;;20.30;52.80;;;;;;20497;6839;293751;-72
2023/08/10 07:11:21;;;;;;;3.67;3.20;;;20.70;52.30;;;;;;20517;6839;309523;-72
2023/08/10 07:13:48;;;;;;;3.50;3.20;;;21.00;51.70;;;;;;20521;6839;336390;-72
2023/08/10 07:16:13;;;;;;;3.25;3.10;;;21.40;51.90;;;;;;20743;6832;119723;-72
2023/08/10 07:18:38;;;;;;;3.20;2.90;;;21.30;51.90;;;;;;20553;6839;282716;-72
2023/08/10 07:21:04;;;;;;;3.37;3.12;;;21.40;51.40;;;;;;20745;6834;119390;-71
2023/08/10 07:23:30;;;;;;;3.33;3.03;;;21.30;51.60;;;;;;20739;6839;117156;-72
2023/08/10 07:25:55;;;;;;;5.75;5.45;;;21.20;52.20;;;;;;20538;6834;303692;-72
2023/08/10 07:28:23;;;;;;;5.80;5.40;;;21.70;52.40;;;;;;20521;6839;288290;-72
2023/08/10 07:30:47;;;;;;;4.97;4.60;;;21.70;52.40;;;;;;20723;6834;119416;-72
2023/08/10 07:33:13;;;;;;;4.17;3.87;;;21.60;52.90;;;;;;20727;6839;117763;-72
2023/08/10 07:35:38;;;;;;;4.67;4.27;;;21.60;52.80;;;;;;20687;6854;119412;-72
2023/08/10 07:38:04;;;;;;;4.83;4.53;;;21.50;53.10;;;;;;20735;6839;117078;-72
2023/08/10 07:40:30;;;;;;;5.32;4.82;;;21.50;53.30;;;;;;20522;6839;307917;-72
2023/08/10 07:42:55;;;;;;;4.62;4.32;;;21.70;52.70;;;;;;20512;6839;282890;-73
2023/08/10 07:45:21;;;;;;;5.12;4.72;;;22.10;52.10;;;;;;20688;6854;120672;-72
2023/08/10 07:47:46;;;;;;;5.30;3.70;;;22.20;52.70;;;;;;20730;6839;117223;-72
2023/08/10 07:50:12;;;;;;;4.00;3.62;;;22.10;52.20;;;;;;20733;6839;123012;-72
2023/08/10 07:52:37;;;;;;;5.07;4.77;;;22.00;52.50;;;;;;20522;6839;284617;-73
2023/08/10 07:55:05;;;;;;;5.00;4.60;;;22.60;51.40;;;;;;20460;6854;337180;-72
2023/08/10 07:57:30;;;;;;;4.70;4.27;;;22.60;51.40;;;;;;20730;6839;119898;-73
2023/08/10 07:59:56;;;;;;;4.20;3.90;;;22.60;51.40;;;;;;20736;6839;120270;-72
2023/08/10 08:02:21;;;;;;;4.78;4.47;;;22.40;51.60;;;;;;20516;6839;307180;-72
2023/08/10 08:04:46;;;;;;;4.22;3.92;;;22.50;51.70;;;;;;20698;6839;119823;-72
2023/08/10 08:07:12;;;;;;;4.10;3.90;;;22.60;51.70;;;;;;20729;6839;119470;-72
2023/08/10 08:09:37;;;;;;;6.43;4.53;;;22.50;52.10;;;;;;20530;6835;307457;-72
2023/08/10 08:12:03;;;;;;;4.10;3.73;;;22.70;51.10;;;;;;20734;6839;117149;-72
2023/08/10 08:14:29;;;;;;;4.30;4.00;;;23.00;50.40;;;;;;20469;6854;313330;-72
2023/08/10 08:16:55;;;;;;;5.70;3.50;;;23.00;50.40;;;;;;20713;6839;118340;-72
2023/08/10 08:19:20;;;;;;;4.00;3.70;;;23.10;50.40;;;;;;20516;6839;282519;-72
2023/08/10 08:21:48;;;;;;;4.62;4.22;;;23.30;50.20;;;;;;20523;6839;278656;-72
2023/08/10 08:24:12;;;;;;;4.15;3.75;;;23.60;49.30;;;;;;20507;6839;336667;-72
2023/08/10 08:26:38;;;;;;;3.83;3.63;;;24.00;48.50;;;;;;20729;6838;117195;-72
2023/08/10 08:29:03;;;;;;;3.40;3.20;;;24.00;48.70;;;;;;20727;6836;119788;-72
2023/08/10 08:31:28;;;;;;;3.20;3.07;;;23.90;49.20;;;;;;20725;6839;119608;-72
2023/08/10 08:33:54;;;;;;;3.50;3.20;;;23.80;49.50;;;;;;20753;6834;119142;-72
2023/08/10 08:36:20;;;;;;;3.40;3.20;;;23.80;49.60;;;;;;20735;6839;123372;-72
2023/08/10 08:38:45;;;;;;;4.32;4.03;;;23.80;49.70;;;;;;20724;6839;123555;-72
2023/08/10 08:41:11;;;;;;;3.62;3.40;;;23.90;49.60;;;;;;20542;6834;315642;-72
2023/08/10 08:43:36;;;;;;;4.10;3.25;;;24.20;47.70;;;;;;20524;6839;318760;-72
2023/08/10 08:46:02;;;;;;;4.10;3.60;;;24.60;47.60;;;;;;20722;6839;122232;-72
2023/08/10 08:48:27;;;;;;;3.13;2.97;;;24.80;47.50;;;;;;20737;6834;117782;-72
2023/08/10 08:50:53;;;;;;;3.45;3.25;;;24.70;47.70;;;;;;20495;6839;306674;-73
2023/08/10 08:53:19;;;;;;;7.75;7.15;;;25.10;47.40;;;;;;20741;6834;117249;-72
2023/08/10 08:55:46;;;;;;;3.43;3.07;;;25.00;47.40;;;;;;20733;6839;117177;-72
2023/08/10 08:58:10;;;;;;;3.83;2.73;;;25.10;47.80;;;;;;20689;6854;119294;-72
2023/08/10 09:00:37;;;;;;;3.45;3.15;;;25.40;47.30;;;;;;20514;6839;309259;-72
2023/08/10 09:03:02;;;;;;;3.10;2.90;;;25.40;46.60;;;;;;20703;6839;119810;-72
2023/08/10 09:05:28;;;;;;;3.03;2.83;;;25.60;46.60;;;;;;20724;6839;119337;-72
2023/08/10 09:07:53;;;;;;;3.17;2.97;;;25.50;46.40;;;;;;20535;6835;277581;-72
2023/08/10 09:10:19;;;;;;;2.80;2.70;;;25.80;45.70;;;;;;20517;6839;341398;-72
2023/08/10 09:12:45;;;;;;;3.10;2.90;;;26.30;44.90;;;;;;20708;6839;119342;-72
2023/08/10 09:15:10;;;;;;;3.90;3.55;;;26.40;45.00;;;;;;20518;6839;307974;-72
2023/08/10 09:17:36;;;;;;;4.00;3.70;;;26.60;44.40;;;;;;20741;6835;117234;-72
2023/08/10 09:20:02;;;;;;;3.75;3.45;;;26.60;44.30;;;;;;20530;6835;306902;-72
2023/08/10 09:22:30;;;;;;;3.78;3.47;;;26.80;43.80;;;;;;20518;6839;278362;-72
2023/08/10 09:24:56;;;;;;;3.03;2.93;;;27.10;43.20;;;;;;20726;6835;122878;-72
2023/08/10 09:27:22;;;;;;;3.17;2.97;;;27.10;43.20;;;;;;20519;6839;308040;-72
2023/08/10 09:29:47;;;;;;;3.00;2.87;;;27.20;42.90;;;;;;20724;6839;120192;-72
2023/08/10 09:32:19;;;;;;;3.40;3.12;;;27.20;43.10;;;;;;20534;6835;311724;-72
2023/08/10 09:34:45;;;;;;;3.03;2.83;;;27.30;42.40;;;;;;20700;6839;120290;-72
2023/08/10 09:37:11;;;;;;;2.72;2.47;;;27.10;43.60;;;;;;20748;6835;117265;-72
2023/08/10 09:39:37;;;;;;;2.90;2.70;;;27.10;43.60;;;;;;20741;6833;123881;-73
2023/08/10 09:42:03;;;;;;;3.37;3.17;;;27.00;43.70;;;;;;20751;6834;116951;-72
2023/08/10 09:44:28;;;;;;;3.50;3.20;;;26.80;43.90;;;;;;20531;6834;307192;-73
2023/08/10 09:46:58;;;;;;;3.03;2.90;;;27.00;43.40;;;;;;20440;6839;336854;-72
2023/08/10 09:49:22;;;;;;;3.60;3.40;;;27.40;42.80;;;;;;20742;6834;117227;-72
2023/08/10 09:51:48;;;;;;;4.00;3.00;;;27.40;42.50;;;;;;20514;6839;337893;-72
2023/08/10 09:54:14;;;;;;;3.30;3.00;;;27.50;42.40;;;;;;20527;6839;336607;-72
2023/08/10 09:56:39;;;;;;;3.40;3.10;;;27.80;41.40;;;;;;20517;6839;279134;-73
2023/08/10 09:59:05;;;;;;;2.90;2.78;;;28.10;41.00;;;;;;20730;6834;117134;-72
2023/08/10 10:01:32;;;;;;;3.13;2.83;;;28.10;40.90;;;;;;20731;6839;117382;-72
2023/08/10 10:03:57;;;;;;;3.57;2.73;;;27.70;42.00;;;;;;20747;6834;119751;-72
2023/08/10 10:06:23;;;;;;;3.20;3.00;;;27.70;42.00;;;;;;20527;6839;307342;-72
2023/08/10 10:08:52;;;;;;;3.08;2.78;;;27.80;41.10;;;;;;20515;6834;311241;-73
2023/08/10 10:11:18;;;;;;;2.83;2.67;;;28.20;40.60;;;;;;20732;6834;117248;-73
2023/08/10 10:13:44;;;;;;;3.00;2.80;;;28.10;40.50;;;;;;20717;6839;120268;-72
2023/08/10 10:16:09;;;;;;;2.75;2.58;;;28.00;40.50;;;;;;20688;6854;119939;-73
2023/08/10 10:18:35;;;;;;;2.28;2.17;;;27.90;40.80;;;;;;20679;6854;117236;-72
2023/08/10 10:21:02;;;;;;;3.35;2.58;;;27.70;40.20;;;;;;20713;6839;119825;-72
2023/08/10 10:23:27;;;;;;;2.60;2.40;;;27.70;40.20;;;;;;20729;6839;117652;-72
2023/08/10 10:26:02;;;;;;;2.60;2.50;;;27.60;39.70;;;;;;20460;6854;312493;-72
2023/08/10 10:28:29;;;;;;;2.60;2.40;;;27.80;37.90;;;;;;20729;6839;120686;-72
2023/08/10 10:30:54;;;;;;;2.17;2.07;;;28.00;38.40;;;;;;20728;6835;123063;-72
2023/08/10 10:33:19;;;;;;;3.10;2.90;;;28.10;38.90;;;;;;20488;6839;307593;-72
2023/08/10 10:35:44;;;;;;;2.70;2.60;;;28.30;37.40;;;;;;20725;6839;119826;-73
2023/08/10 10:38:10;;;;;;;2.50;2.30;;;28.50;39.20;;;;;;20676;6835;116982;-72
2023/08/10 10:40:36;;;;;;;3.00;2.90;;;28.50;38.30;;;;;;20508;6835;307497;-73
2023/08/10 10:43:02;;;;;;;2.80;2.60;;;28.70;38.30;;;;;;20705;6839;119592;-72
2023/08/10 10:45:27;;;;;;;3.00;2.70;;;28.80;37.50;;;;;;20526;6839;285591;-72
2023/08/10 10:47:53;;;;;;;2.67;2.57;;;29.00;36.00;;;;;;20735;6839;119211;-72
2023/08/10 10:50:18;;;;;;;2.70;2.50;;;29.00;36.10;;;;;;20467;6853;309078;-72
2023/08/10 10:52:52;;;;;;;2.80;2.60;;;29.10;36.40;;;;;;20503;6839;279980;-73
2023/08/10 10:55:16;;;;;;;2.90;2.70;;;29.30;36.40;;;;;;20517;6839;307556;-72
2023/08/10 10:57:42;;;;;;;2.65;2.50;;;29.50;34.50;;;;;;20536;6834;307128;-72
2023/08/10 11:00:09;;;;;;;3.03;2.83;;;29.60;35.60;;;;;;20737;6834;119186;-72
2023/08/10 11:02:35;;;;;;;3.00;2.80;;;29.50;35.50;;;;;;20518;6839;336767;-72
2023/08/10 11:05:00;;;;;;;2.92;2.72;;;29.50;35.70;;;;;;20501;6839;286795;-72
2023/08/10 11:07:25;;;;;;;3.40;2.93;;;29.60;35.20;;;;;;20532;6837;277704;-72
2023/08/10 11:09:51;;;;;;;2.53;2.43;;;29.70;35.10;;;;;;20726;6839;117077;-72
2023/08/10 11:12:16;;;;;;;2.87;2.73;;;29.50;35.10;;;;;;20535;6834;281594;-72
2023/08/10 11:14:42;;;;;;;2.70;2.50;;;29.40;34.60;;;;;;20726;6834;120631;-73
2023/08/10 11:17:10;;;;;;;2.80;2.62;;;29.20;35.10;;;;;;20517;6839;307246;-72
2023/08/10 11:19:34;;;;;;;2.73;2.63;;;29.20;34.80;;;;;;20733;6834;119547;-72
2023/08/10 11:22:00;;;;;;;2.90;2.80;;;29.10;35.00;;;;;;20521;6839;278534;-72
2023/08/10 11:24:29;;;;;;;2.90;2.70;;;29.10;34.10;;;;;;20521;6839;307789;-73
2023/08/10 11:26:54;;;;;;;2.67;2.47;;;29.30;34.60;;;;;;20720;6834;117651;-72
2023/08/10 11:29:20;;;;;;;2.92;2.67;;;29.30;34.80;;;;;;20540;6835;307939;-72
2023/08/10 11:31:45;;;;;;;2.50;2.40;;;29.30;34.80;;;;;;20736;6839;117999;-73
2023/08/10 11:34:21;;;;;;;2.75;2.55;;;29.30;34.30;;;;;;20527;6835;293202;-73
2023/08/10 11:36:47;;;;;;;2.63;2.43;;;29.30;34.30;;;;;;20722;6835;120523;-73
2023/08/10 11:39:12;;;;;;;2.87;2.67;;;29.20;34.80;;;;;;20514;6839;308595;-73
2023/08/10 11:41:38;;;;;;;2.70;2.60;;;29.30;35.30;;;;;;20533;6835;341396;-72
2023/08/10 11:44:04;;;;;;;2.77;2.60;;;29.40;35.00;;;;;;20719;6835;121840;-72
2023/08/10 11:46:29;;;;;;;3.10;2.90;;;29.30;35.20;;;;;;20516;6839;308143;-73
2023/08/10 11:48:55;;;;;;;2.70;2.60;;;29.20;35.70;;;;;;20505;6839;282833;-72
2023/08/10 11:51:20;;;;;;;2.57;2.37;;;29.30;34.50;;;;;;20731;6839;117315;-72
2023/08/10 11:53:47;;;;;;;2.83;2.70;;;29.20;35.50;;;;;;20542;6835;278013;-72
2023/08/10 11:56:12;;;;;;;2.90;2.70;;;29.20;34.80;;;;;;20511;6839;278998;-72
2023/08/10 11:58:38;;;;;;;2.83;2.63;;;29.40;35.00;;;;;;20515;6839;310034;-73
2023/08/10 12:01:05;;;;;;;2.90;2.70;;;29.50;34.60;;;;;;20490;6839;308466;-72
2023/08/10 12:03:29;;;;;;;2.97;2.80;;;29.60;35.00;;;;;;20749;6833;119145;-72
2023/08/10 12:05:55;;;;;;;2.75;2.65;;;29.50;35.00;;;;;;20525;6839;299988;-72
2023/08/10 12:08:23;;;;;;;2.67;2.55;;;29.40;34.30;;;;;;20512;6839;307530;-72
2023/08/10 12:11:02;;;;;;;2.70;2.60;;;29.40;33.90;;;;;;20720;6834;123426;-72
2023/08/10 12:13:28;;;;;;;3.43;2.73;;;29.20;34.70;;;;;;20730;6839;117169;-72
2023/08/10 12:15:53;;;;;;;2.90;2.70;;;28.90;35.60;;;;;;20740;6839;119360;-73
2023/08/10 12:18:19;;;;;;;2.70;2.60;;;28.80;35.50;;;;;;20507;6839;307169;-72
2023/08/10 12:20:45;;;;;;;2.60;2.50;;;28.80;35.50;;;;;;20726;6834;119335;-72
2023/08/10 12:23:11;;;;;;;2.77;2.50;;;28.80;35.60;;;;;;20725;6839;117344;-72
2023/08/10 12:25:36;;;;;;;3.10;2.85;;;28.60;35.40;;;;;;20529;6834;308337;-72
2023/08/10 12:28:02;;;;;;;2.83;2.63;;;28.70;36.40;;;;;;20727;6839;119704;-72